createdAt,value
2018-08-04T00:01:49.332Z,10.50
2018-08-04T00:04:30.709Z,10.77
2018-08-04T00:07:13.864Z,9.73
2018-08-04T00:09:55.680Z,10.97
2018-08-04T00:12:37.742Z,10.00
2018-08-04T00:15:19.143Z,9.67
2018-08-04T00:18:00.652Z,10.93
2018-08-04T00:20:44.004Z,11.23
2018-08-04T00:23:25.454Z,10.80
2018-08-04T00:26:06.860Z,11.33
2018-08-04T00:28:48.784Z,11.17
2018-08-04T00:31:32.139Z,11.20
2018-08-04T00:34:14.860Z,11.67
2018-08-04T00:36:56.417Z,10.70
2018-08-04T00:39:37.741Z,10.50
2018-08-04T00:42:19.077Z,11.00
2018-08-04T00:45:00.579Z,11.03
2018-08-04T00:47:44.136Z,12.00
2018-08-04T00:50:25.491Z,11.37
2018-08-04T00:53:07.329Z,11.33
2018-08-04T00:55:48.696Z,11.37
2018-08-04T00:58:31.076Z,12.97
2018-08-04T01:01:14.900Z,12.23
2018-08-04T01:03:56.252Z,11.73
2018-08-04T01:06:37.770Z,12.53
2018-08-04T01:09:19.222Z,12.10
2018-08-04T01:12:00.575Z,12.17
2018-08-04T01:14:42.642Z,11.53
2018-08-04T01:17:24.092Z,11.90
2018-08-04T01:20:06.434Z,11.93
2018-08-04T01:22:47.803Z,11.47
2018-08-04T01:25:29.164Z,12.60
2018-08-04T01:28:10.998Z,11.30
2018-08-04T01:30:52.462Z,11.90
2018-08-04T01:33:34.327Z,11.20
2018-08-04T01:36:16.870Z,11.50
2018-08-04T01:38:58.349Z,10.73
2018-08-04T01:41:41.023Z,10.70
2018-08-04T01:44:22.445Z,8.97
2018-08-04T01:47:03.760Z,10.07
2018-08-04T01:49:46.125Z,9.77
2018-08-04T01:52:27.598Z,10.03
2018-08-04T01:55:08.989Z,8.80
2018-08-04T01:57:51.376Z,9.10
2018-08-04T02:00:33.108Z,8.63
2018-08-04T02:03:15.543Z,9.10
2018-08-04T02:05:56.895Z,8.70
2018-08-04T02:08:38.310Z,8.60
2018-08-04T02:11:20.896Z,8.90
2018-08-04T02:14:02.375Z,9.20
2018-08-04T02:16:45.100Z,8.57
2018-08-04T02:43:30.918Z,9.03
2018-08-04T02:46:17.767Z,8.57
2018-08-04T02:48:59.439Z,8.47
2018-08-04T02:51:40.879Z,8.83
2018-08-04T02:54:24.025Z,8.37
2018-08-04T02:57:05.389Z,7.20
2018-08-04T02:59:46.820Z,8.10
2018-08-04T03:02:28.303Z,7.97
2018-08-04T03:05:09.996Z,7.47
2018-08-04T03:07:52.530Z,7.83
2018-08-04T03:10:33.840Z,7.90
2018-08-04T03:13:15.839Z,8.67
2018-08-04T03:15:57.148Z,7.83
2018-08-04T03:18:38.415Z,7.83
2018-08-04T03:21:25.487Z,7.47
2018-08-04T03:24:07.427Z,8.33
2018-08-04T03:26:51.923Z,7.93
2018-08-04T03:29:33.599Z,7.83
2018-08-04T03:32:15.148Z,8.00
2018-08-04T03:34:56.562Z,8.97
2018-08-04T03:37:38.092Z,9.53
2018-08-04T03:40:19.681Z,10.00
2018-08-04T03:43:01.038Z,9.10
2018-08-04T03:45:42.706Z,10.40
2018-08-04T03:48:25.100Z,10.03
2018-08-04T03:51:06.570Z,10.17
2018-08-04T03:53:48.009Z,10.37
2018-08-04T03:56:29.479Z,10.03
2018-08-04T03:59:10.715Z,9.97
2018-08-04T04:01:54.200Z,10.13
2018-08-04T04:04:35.740Z,10.20
2018-08-04T04:07:17.127Z,10.27
2018-08-04T04:09:58.636Z,9.40
2018-08-04T04:12:40.173Z,8.97
2018-08-04T04:15:22.694Z,8.97
2018-08-04T04:18:06.429Z,8.20
2018-08-04T04:20:48.376Z,8.50
2018-08-04T04:23:31.585Z,7.60
2018-08-04T04:26:13.194Z,7.00
2018-08-04T04:28:55.792Z,8.23
2018-08-04T04:31:37.641Z,7.40
2018-08-04T04:34:19.140Z,7.87
2018-08-04T04:37:00.911Z,7.47
2018-08-04T04:39:43.128Z,7.23
2018-08-04T04:42:25.615Z,8.30
2018-08-04T04:45:07.063Z,7.60
2018-08-04T04:47:48.604Z,8.20
2018-08-04T04:50:31.174Z,8.27
2018-08-04T04:53:12.688Z,7.13
2018-08-04T04:55:55.245Z,7.27
2018-08-04T04:58:36.601Z,7.00
2018-08-04T05:01:17.941Z,6.87
2018-08-04T05:03:59.396Z,6.63
2018-08-04T05:06:41.131Z,6.97
2018-08-04T05:09:25.246Z,6.50
2018-08-04T05:12:06.938Z,6.73
2018-08-04T05:14:48.448Z,7.33
2018-08-04T05:17:30.925Z,6.30
2018-08-04T05:20:12.445Z,7.17
2018-08-04T05:22:55.026Z,7.23
2018-08-04T05:25:36.970Z,7.07
2018-08-04T05:28:18.333Z,8.80
2018-08-04T05:31:00.947Z,8.40
2018-08-04T05:33:42.488Z,8.17
2018-08-04T05:36:25.721Z,7.93
2018-08-04T05:39:10.000Z,8.83
2018-08-04T05:41:54.169Z,7.60
2018-08-04T05:44:35.516Z,8.33
2018-08-04T05:47:17.208Z,9.20
2018-08-04T05:49:58.589Z,8.50
2018-08-04T05:52:44.031Z,9.00
2018-08-04T05:55:29.237Z,8.73
2018-08-04T05:58:10.752Z,9.10
2018-08-04T06:00:54.007Z,8.93
2018-08-04T06:03:35.471Z,8.27
2018-08-04T06:06:17.142Z,8.40
2018-08-04T06:08:58.503Z,9.17
2018-08-04T06:11:40.537Z,8.60
2018-08-04T06:14:23.915Z,7.87
2018-08-04T06:17:05.256Z,7.77
2018-08-04T06:19:46.583Z,7.43
2018-08-04T06:22:28.204Z,6.93
2018-08-04T06:25:09.689Z,6.83
2018-08-04T06:27:51.869Z,8.70
2018-08-04T06:30:33.726Z,6.73
2018-08-04T06:33:16.028Z,6.37
2018-08-04T06:35:58.300Z,6.23
2018-08-04T06:38:39.721Z,6.50
2018-08-04T06:41:21.892Z,6.00
2018-08-04T06:44:03.741Z,6.63
2018-08-04T06:46:45.092Z,6.43
2018-08-04T06:49:27.349Z,6.90
2018-08-04T06:52:08.691Z,6.47
2018-08-04T06:54:50.981Z,6.20
2018-08-04T06:57:32.572Z,6.33
2018-08-04T07:00:13.930Z,6.70
2018-08-04T07:02:56.441Z,5.87
2018-08-04T07:05:37.799Z,6.20
2018-08-04T07:08:19.176Z,6.13
2018-08-04T07:11:00.813Z,6.03
2018-08-04T07:13:42.272Z,7.27
2018-08-04T07:16:24.971Z,5.50
2018-08-04T07:19:07.497Z,5.63
2018-08-04T07:21:48.937Z,5.33
2018-08-04T07:24:30.962Z,5.47
2018-08-04T07:27:12.339Z,5.27
2018-08-04T07:29:55.128Z,5.27
2018-08-04T07:32:36.597Z,5.53
2018-08-04T07:35:18.159Z,5.80
2018-08-04T07:38:01.023Z,5.73
2018-08-04T07:40:42.552Z,5.40
2018-08-04T07:43:25.175Z,5.80
2018-08-04T07:46:06.543Z,5.60
2018-08-04T07:48:47.750Z,5.87
2018-08-04T07:51:29.291Z,5.57
2018-08-04T07:54:10.680Z,4.93
2018-08-04T07:56:54.023Z,5.63
2018-08-04T07:59:35.292Z,5.13
2018-08-04T08:02:16.614Z,5.20
2018-08-04T08:04:58.368Z,5.13
2018-08-04T08:07:39.856Z,4.67
2018-08-04T08:10:22.317Z,4.67
2018-08-04T08:13:03.751Z,5.07
2018-08-04T08:15:45.079Z,5.53
2018-08-04T08:18:26.792Z,5.20
2018-08-04T08:21:08.365Z,4.67
2018-08-04T08:23:51.573Z,5.50
2018-08-04T08:26:33.803Z,5.07
2018-08-04T08:29:15.556Z,5.37
2018-08-04T08:31:56.906Z,5.20
2018-08-04T08:34:38.401Z,5.20
2018-08-04T08:37:21.076Z,5.20
2018-08-04T08:40:05.182Z,5.00
2018-08-04T08:42:46.524Z,4.87
2018-08-04T08:45:28.064Z,4.80
2018-08-04T08:48:09.436Z,4.90
2018-08-04T08:50:54.137Z,5.03
2018-08-04T08:53:35.701Z,5.20
2018-08-04T08:56:17.759Z,4.90
2018-08-04T08:58:59.108Z,4.93
2018-08-04T09:01:40.601Z,5.37
2018-08-04T09:04:25.045Z,5.40
2018-08-04T09:07:06.635Z,5.40
2018-08-04T09:09:48.031Z,6.40
2018-08-04T09:12:29.263Z,6.13
2018-08-04T09:15:10.678Z,5.80
2018-08-04T09:17:54.340Z,5.53
2018-08-04T09:20:35.656Z,5.10
2018-08-04T09:23:17.437Z,5.90
2018-08-04T09:25:58.842Z,5.77
2018-08-04T09:28:40.271Z,6.00
2018-08-04T09:31:23.950Z,6.10
2018-08-04T09:34:05.359Z,6.10
2018-08-04T09:36:47.439Z,6.73
2018-08-04T09:39:28.864Z,5.73
2018-08-04T09:42:10.330Z,6.23
2018-08-04T09:44:54.234Z,5.90
2018-08-04T09:47:35.798Z,5.87
2018-08-04T09:50:17.200Z,6.03
2018-08-04T09:52:58.668Z,7.10
2018-08-04T09:55:40.175Z,6.00
2018-08-04T09:58:24.005Z,5.43
2018-08-04T10:01:10.693Z,5.60
2018-08-04T10:03:54.212Z,5.47
2018-08-04T10:06:35.795Z,5.67
2018-08-04T10:09:17.188Z,5.67
2018-08-04T10:11:58.538Z,6.97
2018-08-04T10:14:39.811Z,5.87
2018-08-04T10:17:23.988Z,6.40
2018-08-04T10:20:06.191Z,6.93
2018-08-04T10:22:47.659Z,6.87
2018-08-04T10:25:28.996Z,6.70
2018-08-04T10:28:10.404Z,6.60
2018-08-04T10:30:53.958Z,6.23
2018-08-04T10:33:35.497Z,5.90
2018-08-04T10:36:17.642Z,5.60
2018-08-04T10:38:58.965Z,6.13
2018-08-04T10:41:40.276Z,6.20
2018-08-04T10:44:24.251Z,5.37
2018-08-04T10:47:05.765Z,6.10
2018-08-04T10:49:47.962Z,7.03
2018-08-04T10:52:29.451Z,5.20
2018-08-04T10:55:10.908Z,5.53
2018-08-04T10:57:54.075Z,5.00
2018-08-04T11:00:35.527Z,5.60
2018-08-04T11:03:16.862Z,6.17
2018-08-04T11:05:58.387Z,5.67
2018-08-04T11:08:39.683Z,4.83
2018-08-04T11:11:24.085Z,5.93
2018-08-04T11:14:06.614Z,5.37
2018-08-04T11:16:48.164Z,5.80
2018-08-04T11:19:30.933Z,6.23
2018-08-04T11:22:12.397Z,5.13
2018-08-04T11:24:54.906Z,4.73
2018-08-04T11:27:36.225Z,4.87
2018-08-04T11:30:17.528Z,6.63
2018-08-04T11:32:58.997Z,5.20
2018-08-04T11:35:40.436Z,5.10
2018-08-04T11:38:24.096Z,5.43
2018-08-04T11:41:05.481Z,5.07
2018-08-04T11:43:46.920Z,5.13
2018-08-04T11:46:28.448Z,5.10
2018-08-04T11:49:09.857Z,5.13
2018-08-04T11:51:53.954Z,5.17
2018-08-04T11:54:35.175Z,5.03
2018-08-04T11:57:16.547Z,5.10
2018-08-04T11:59:58.080Z,4.90
2018-08-04T12:02:39.628Z,4.80
2018-08-04T12:05:22.152Z,4.50
2018-08-04T12:08:09.212Z,5.40
2018-08-04T12:10:52.167Z,5.57
2018-08-04T12:13:34.049Z,5.77
2018-08-04T12:16:15.603Z,4.87
2018-08-04T12:18:57.431Z,5.53
2018-08-04T12:21:39.130Z,5.70
2018-08-04T12:24:20.917Z,4.70
2018-08-04T12:27:02.600Z,5.90
2018-08-04T12:29:44.361Z,5.27
2018-08-04T12:32:27.247Z,5.90
2018-08-04T12:35:09.783Z,6.07
2018-08-04T12:37:53.111Z,5.13
2018-08-04T12:40:34.689Z,5.17
2018-08-04T12:43:16.164Z,5.53
2018-08-04T12:45:57.777Z,6.30
2018-08-04T12:48:39.391Z,5.30
2018-08-04T12:51:21.415Z,5.03
2018-08-04T12:54:02.879Z,5.13
2018-08-04T12:56:44.204Z,5.30
2018-08-04T12:59:26.838Z,5.03
2018-08-04T13:02:08.733Z,4.70
2018-08-04T13:04:51.948Z,4.77
2018-08-04T13:07:34.211Z,5.47
2018-08-04T13:10:15.707Z,4.93
2018-08-04T13:12:57.421Z,4.83
2018-08-04T13:15:54.641Z,5.13
2018-08-04T13:18:36.212Z,5.60
2018-08-04T13:21:17.647Z,5.33
2018-08-04T13:23:59.295Z,5.10
2018-08-04T13:26:41.340Z,7.23
2018-08-04T13:29:24.778Z,5.67
2018-08-04T13:32:08.659Z,4.70
2018-08-04T13:34:51.445Z,5.27
2018-08-04T13:37:33.007Z,5.70
2018-08-04T13:40:14.333Z,5.23
2018-08-04T13:42:57.300Z,5.13
2018-08-04T13:45:40.403Z,6.23
2018-08-04T13:48:23.192Z,5.50
2018-08-04T13:51:04.575Z,6.10
2018-08-04T13:53:46.081Z,5.17
2018-08-04T13:56:27.447Z,5.57
2018-08-04T13:59:08.921Z,6.27
2018-08-04T14:01:51.640Z,5.30
2018-08-04T14:04:33.172Z,10.30
2018-08-04T14:07:14.732Z,25.90
2018-08-04T14:09:56.977Z,7.50
2018-08-04T14:12:38.616Z,6.63
2018-08-04T14:15:21.759Z,6.47
2018-08-04T14:18:04.297Z,6.63
2018-08-04T14:20:45.828Z,4.90
2018-08-04T14:23:27.712Z,6.30
2018-08-04T14:26:09.610Z,5.43
2018-08-04T14:28:51.863Z,5.30
2018-08-04T14:31:34.522Z,5.77
2018-08-04T14:34:15.863Z,6.00
2018-08-04T14:36:57.649Z,5.00
2018-08-04T14:39:39.226Z,5.20
2018-08-04T14:42:21.820Z,4.87
2018-08-04T14:45:04.375Z,5.27
2018-08-04T14:47:45.895Z,5.73
2018-08-04T14:50:27.690Z,6.60
2018-08-04T14:53:09.251Z,5.80
2018-08-04T14:55:51.744Z,5.60
2018-08-04T14:58:33.054Z,6.67
2018-08-04T15:01:15.709Z,7.23
2018-08-04T15:03:57.570Z,5.73
2018-08-04T15:06:39.040Z,5.83
2018-08-04T15:09:20.411Z,5.20
2018-08-04T15:12:01.734Z,5.03
2018-08-04T15:14:43.186Z,4.97
2018-08-04T15:17:35.190Z,5.90
2018-08-04T15:20:18.280Z,5.90
2018-08-04T15:22:59.739Z,5.63
2018-08-04T15:25:41.092Z,5.37
2018-08-04T15:28:24.991Z,5.20
2018-08-04T15:31:06.444Z,13.30
2018-08-04T15:33:47.938Z,6.90
2018-08-04T15:36:29.311Z,5.67
2018-08-04T15:39:16.647Z,5.53
2018-08-04T15:41:58.149Z,5.67
2018-08-04T15:44:42.502Z,5.20
2018-08-04T15:47:26.246Z,5.33
2018-08-04T15:50:07.611Z,5.50
2018-08-04T15:52:49.323Z,5.43
2018-08-04T15:55:31.684Z,5.63
2018-08-04T15:58:13.253Z,5.20
2018-08-04T16:00:56.479Z,5.27
2018-08-04T16:03:38.047Z,5.37
2018-08-04T16:06:19.440Z,5.17
2018-08-04T16:09:02.076Z,5.47
2018-08-04T16:11:43.599Z,5.70
2018-08-04T16:14:26.040Z,5.20
2018-08-04T16:17:08.013Z,6.23
2018-08-04T16:19:49.620Z,5.97
2018-08-04T16:22:31.691Z,6.57
2018-08-04T16:25:13.649Z,5.90
2018-08-04T16:27:56.543Z,6.67
2018-08-04T16:30:37.899Z,6.03
2018-08-04T16:33:19.353Z,6.23
2018-08-04T16:36:01.712Z,5.87
2018-08-04T16:38:43.052Z,5.90
2018-08-04T16:41:25.970Z,6.13
2018-08-04T16:44:07.323Z,6.20
2018-08-04T16:46:48.797Z,6.40
2018-08-04T16:49:30.672Z,6.10
2018-08-04T16:52:12.045Z,6.47
2018-08-04T16:54:56.010Z,7.53
2018-08-04T16:57:37.835Z,6.50
2018-08-04T17:00:25.304Z,6.80
2018-08-04T17:03:06.808Z,6.30
2018-08-04T17:05:48.767Z,5.90
2018-08-04T17:08:30.283Z,6.80
2018-08-04T17:11:12.345Z,7.00
2018-08-04T17:13:56.189Z,6.80
2018-08-04T17:16:37.913Z,6.90
2018-08-04T17:19:19.406Z,7.60
2018-08-04T17:22:01.769Z,7.50
2018-08-04T17:24:43.063Z,8.40
2018-08-04T17:27:28.415Z,7.33
2018-08-04T17:30:09.988Z,8.50
2018-08-04T17:32:52.176Z,9.37
2018-08-04T17:35:34.896Z,10.03
2018-08-04T17:38:17.315Z,9.40
2018-08-04T17:40:58.829Z,11.00
2018-08-04T17:43:40.201Z,10.80
2018-08-04T17:46:22.112Z,9.67
2018-08-04T17:49:03.603Z,15.37
2018-08-04T17:51:45.199Z,11.33
2018-08-04T17:54:27.895Z,11.07
2018-08-04T17:57:09.501Z,11.53
2018-08-04T17:59:52.077Z,10.77
2018-08-04T18:02:33.737Z,11.73
2018-08-04T18:05:15.449Z,11.80
2018-08-04T18:07:58.362Z,10.97
2018-08-04T18:10:39.783Z,11.27
2018-08-04T18:13:22.004Z,11.50
2018-08-04T18:16:03.299Z,11.23
2018-08-04T18:18:44.634Z,11.60
2018-08-04T18:21:27.133Z,11.10
2018-08-04T18:24:08.610Z,14.07
2018-08-04T18:26:49.908Z,10.63
2018-08-04T18:29:32.105Z,11.93
2018-08-04T18:32:13.463Z,13.73
2018-08-04T18:34:55.906Z,12.27
2018-08-04T18:37:37.265Z,12.30
2018-08-04T18:40:18.608Z,12.30
2018-08-04T18:43:00.052Z,14.10
2018-08-04T18:45:41.445Z,13.17
2018-08-04T18:48:23.623Z,13.37
2018-08-04T18:51:04.972Z,13.00
2018-08-04T18:53:46.391Z,13.00
2018-08-04T18:56:27.868Z,12.30
2018-08-04T18:59:09.206Z,15.17
2018-08-04T19:01:50.477Z,12.27
2018-08-04T19:04:31.922Z,12.67
2018-08-04T19:07:13.321Z,12.03
2018-08-04T19:09:56.168Z,11.10
2018-08-04T19:12:37.323Z,11.70
2018-08-04T19:15:18.622Z,11.70
2018-08-04T19:18:02.041Z,12.10
2018-08-04T19:20:43.396Z,11.23
2018-08-04T19:23:26.071Z,11.47
2018-08-04T19:26:07.637Z,11.87
2018-08-04T19:28:49.613Z,12.33
2018-08-04T19:31:33.037Z,13.63
2018-08-04T19:34:14.495Z,12.33
2018-08-04T19:36:56.851Z,13.70
2018-08-04T19:39:38.264Z,14.47
2018-08-04T19:42:19.668Z,14.33
2018-08-04T19:45:11.074Z,13.63
2018-08-04T19:47:53.828Z,13.23
2018-08-04T19:50:35.289Z,13.53
2018-08-04T19:53:17.115Z,12.33
2018-08-04T19:55:58.831Z,13.10
2018-08-04T19:58:40.267Z,14.83
2018-08-04T20:01:22.240Z,14.97
2018-08-04T20:04:03.704Z,13.63
2018-08-04T20:06:45.090Z,14.10
2018-08-04T20:09:27.368Z,13.83
2018-08-04T20:12:08.612Z,15.03
2018-08-04T20:14:49.967Z,13.60
2018-08-04T20:17:32.384Z,13.30
2018-08-04T20:20:13.792Z,13.30
2018-08-04T20:22:56.236Z,14.07
2018-08-04T20:25:38.623Z,13.60
2018-08-04T20:28:22.360Z,13.80
2018-08-04T20:31:05.387Z,17.23
2018-08-04T20:33:48.036Z,24.03
2018-08-04T20:36:29.474Z,16.90
2018-08-04T20:39:11.368Z,13.40
2018-08-04T20:41:53.984Z,11.63
2018-08-04T20:44:35.943Z,11.73
2018-08-04T20:47:17.500Z,11.17
2018-08-04T20:49:59.042Z,11.50
2018-08-04T20:52:40.779Z,11.43
2018-08-04T20:55:23.787Z,11.83
2018-08-04T20:58:05.286Z,12.80
2018-08-04T21:01:03.631Z,14.03
2018-08-04T21:03:44.927Z,13.57
2018-08-04T21:06:27.707Z,13.37
2018-08-04T21:09:09.061Z,13.37
2018-08-04T21:11:52.470Z,11.80
2018-08-04T21:14:34.133Z,13.33
2018-08-04T21:17:15.847Z,12.93
2018-08-04T21:19:59.454Z,13.20
2018-08-04T21:22:41.067Z,12.03
2018-08-04T21:25:23.729Z,10.80
2018-08-04T21:28:05.987Z,10.40
2018-08-04T21:30:47.441Z,11.40
2018-08-04T21:33:28.930Z,10.30
2018-08-04T21:36:12.117Z,9.17
2018-08-04T21:38:55.716Z,8.63
2018-08-04T21:41:37.155Z,9.00
2018-08-04T21:44:18.497Z,7.80
2018-08-04T21:46:59.960Z,7.47
2018-08-04T21:49:42.495Z,8.03
2018-08-04T21:52:25.965Z,9.73
2018-08-04T21:55:07.432Z,8.97
2018-08-04T21:57:48.835Z,9.03
2018-08-04T22:00:30.772Z,8.13
2018-08-04T22:03:13.314Z,8.20
2018-08-04T22:05:56.652Z,8.13
2018-08-04T22:08:55.684Z,7.80
2018-08-04T22:11:37.176Z,8.57
2018-08-04T22:14:18.512Z,8.63
2018-08-04T22:17:00.879Z,8.47
2018-08-04T22:19:42.222Z,8.87
2018-08-04T22:22:24.384Z,9.57
2018-08-04T22:25:07.305Z,9.27
2018-08-04T22:27:49.289Z,9.67
2018-08-04T22:30:30.596Z,9.30
2018-08-04T22:33:11.949Z,9.70
2018-08-04T22:35:56.804Z,9.07
2018-08-04T22:38:38.372Z,9.50
2018-08-04T22:41:19.768Z,9.83
2018-08-04T22:44:01.312Z,11.00
2018-08-04T22:46:42.784Z,11.63
2018-08-04T22:49:26.853Z,11.00
2018-08-04T22:52:08.810Z,12.13
2018-08-04T22:54:50.407Z,11.73
2018-08-04T22:57:33.532Z,10.57
2018-08-04T23:00:18.268Z,11.77
2018-08-04T23:02:59.817Z,10.57
2018-08-04T23:05:41.173Z,9.73
2018-08-04T23:08:23.643Z,10.83
2018-08-04T23:11:05.658Z,9.60
2018-08-04T23:13:47.016Z,10.03
2018-08-04T23:16:28.579Z,10.33
2018-08-04T23:19:09.871Z,9.90
2018-08-04T23:21:51.166Z,10.63
2018-08-04T23:24:33.467Z,10.40
2018-08-04T23:27:14.861Z,10.50
2018-08-04T23:29:57.315Z,10.27
2018-08-04T23:32:38.887Z,11.63
2018-08-04T23:35:21.043Z,11.27
2018-08-04T23:38:03.272Z,12.60
2018-08-04T23:40:45.324Z,13.50
2018-08-04T23:43:28.232Z,12.40
2018-08-04T23:46:09.674Z,14.97
2018-08-04T23:48:52.782Z,15.03
2018-08-04T23:51:35.615Z,15.30
2018-08-04T23:54:17.213Z,16.13
2018-08-04T23:56:58.702Z,17.50
2018-08-04T23:59:40.293Z,17.53
